KG6TDA Newport NC US current weather conditions

sailwx.info

Wind from 352

Air temperature 14.4° C
Dewpoint 13.7° C

Last reported at 2020-Jan-25 13:03 UTC.
Time now 2020-Jan-25 13:55 UTC

Location: N 34°47' W 076°52'.
View on Google Maps.

See reports from other nearby stations

  
Tides and Currents Weather Stations Pressure Air Temp Water Temp Dewpoint Dewpoint Depression Visibility Wind Speed Wind Dir Waves Ship Positions
date/time (UTC)wind fromknots sea level pressurealtimeterstation pressurevisibilityair tempwater tempwave heightnotes
2020-Jan-25 13:03 352 14.4
2020-Jan-25 12:53 290 14.4
2020-Jan-25 12:43 299 14.4
2020-Jan-25 12:30 291 15.0
2020-Jan-25 12:23 084 15.0
2020-Jan-25 12:13 084 15.0
2020-Jan-25 12:03 084 15.0
2020-Jan-25 11:53 084 15.6
2020-Jan-25 11:43 148 15.6
2020-Jan-25 11:33 283 15.6
2020-Jan-25 11:30 283 15.6
2020-Jan-25 11:23 289 15.6
2020-Jan-25 11:13 195 16.1
2020-Jan-25 11:03 231 16.1
2020-Jan-25 10:53 205 1 gusting 6 16.1
2020-Jan-25 10:43 141 2 gusting 7 16.1
2020-Jan-25 10:33 113 3 gusting 10 16.1
2020-Jan-25 10:30 182 0 gusting 6 16.1
2020-Jan-25 10:23 158 1 gusting 7 16.1
2020-Jan-25 10:13 144 1 gusting 9 16.7
2020-Jan-25 10:03 151 1 gusting 9 16.7
2020-Jan-25 09:53 126 2 gusting 10 16.7
2020-Jan-25 09:43 223 1 gusting 6 16.7
2020-Jan-25 09:33 329 2 gusting 6 16.1
2020-Jan-25 09:23 117 0 gusting 6 16.7
2020-Jan-25 09:03 072 1 gusting 6 16.1
2020-Jan-25 08:53 129 0 gusting 9 16.1
2020-Jan-25 08:43 124 1 gusting 5 16.1
2020-Jan-25 08:33 142 1 gusting 6 16.7
2020-Jan-25 08:23 223 2 gusting 6 16.1
2020-Jan-25 08:13 150 1 gusting 6 16.1
2020-Jan-25 08:03 152 1 gusting 5 16.1
2020-Jan-25 07:53 159 0 gusting 3 16.1
2020-Jan-25 07:43 171 1 gusting 6 16.1
2020-Jan-25 07:33 203 0 gusting 2 16.1
2020-Jan-25 07:23 153 16.1
2020-Jan-25 07:13 162 1 gusting 6 16.1
2020-Jan-25 07:03 143 16.7
2020-Jan-25 06:53 023 0 gusting 5 16.7
2020-Jan-25 06:43 093 2 gusting 9 17.2
2020-Jan-25 06:33 163 2 gusting 13 17.2
2020-Jan-25 06:23 057 3 gusting 7 17.2
2020-Jan-25 06:13 169 1 gusting 6 16.7
2020-Jan-25 06:03 153 2 gusting 6 16.7
2020-Jan-25 05:53 239 3 gusting 11 16.7
2020-Jan-25 05:43 050 1 gusting 6 16.7
2020-Jan-25 05:33 099 1 gusting 5 16.7
2020-Jan-25 05:23 127 2 gusting 6 16.7
2020-Jan-25 05:13 115 1 gusting 6 16.7
2020-Jan-25 05:03 129 1 gusting 4 16.7
2020-Jan-25 04:53 018 1 gusting 6 16.7
2020-Jan-25 04:43 153 3 gusting 7 16.7
2020-Jan-25 04:33 340 2 gusting 6 16.7
2020-Jan-25 04:23 120 0 gusting 5 16.7
2020-Jan-25 04:13 032 2 gusting 9 16.7
2020-Jan-25 04:03 154 1 gusting 6 16.7
2020-Jan-25 03:53 191 0 gusting 6 16.7
2020-Jan-25 03:43 065 1 gusting 6 17.2
2020-Jan-25 03:33 130 2 gusting 7 16.7
2020-Jan-25 03:23 210 0 gusting 4 17.2
2020-Jan-25 03:13 174 1 gusting 8 17.8
2020-Jan-25 03:03 150 2 gusting 9 17.8
2020-Jan-25 02:53 056 1 gusting 5 17.8
2020-Jan-25 02:43 134 1 gusting 5 17.8
2020-Jan-25 02:33 066 2 gusting 6 17.8
2020-Jan-25 02:23 353 1 gusting 5 17.8
2020-Jan-25 02:13 131 1 gusting 6 17.8
2020-Jan-25 02:03 101 1 gusting 6 17.8
2020-Jan-25 01:53 054 0 gusting 4 17.2
2020-Jan-25 01:43 087 0 gusting 4 17.2
2020-Jan-25 01:33 200 0 gusting 6 17.2
2020-Jan-25 01:23 135 1 gusting 4 17.2
2020-Jan-25 01:13 119 0 gusting 6 17.2
2020-Jan-25 01:03 158 0 gusting 2 17.2
2020-Jan-25 01:00 054 16.7
2020-Jan-25 00:53 097 16.7
2020-Jan-25 00:43 105 0 gusting 2 16.1
2020-Jan-25 00:33 061 16.1
2020-Jan-25 00:23 062 15.6
2020-Jan-25 00:13 075 15.6
2020-Jan-25 00:03 072 16.1
2020-Jan-24 23:53 052 16.1
2020-Jan-24 23:43 052 16.1
2020-Jan-24 23:33 046 16.1
2020-Jan-24 23:23 039 16.1
2020-Jan-24 23:13 038 16.7
2020-Jan-24 23:03 038 16.7
2020-Jan-24 22:53 084 17.2
2020-Jan-24 22:43 069 0 gusting 1 17.8
2020-Jan-24 22:33 056 17.8
2020-Jan-24 22:23 090 0 gusting 2 18.3
2020-Jan-24 22:13 038 0 gusting 3 18.3
2020-Jan-24 22:03 059 18.9
2020-Jan-24 21:53 055 1 gusting 4 18.9
2020-Jan-24 21:43 082 1 gusting 5 18.9
2020-Jan-24 21:33 092 1 gusting 6 19.4
2020-Jan-24 21:23 079 2 gusting 6 20.0
2020-Jan-24 21:13 101 1 gusting 5 20.0
2020-Jan-24 21:03 058 0 gusting 4 20.0
2020-Jan-24 20:53 070 1 gusting 5 20.0
2020-Jan-24 20:43 051 1 gusting 6 20.0
2020-Jan-24 20:33 070 1 gusting 7 20.0
2020-Jan-24 20:23 052 3 gusting 6 20.0
2020-Jan-24 20:13 060 1 gusting 7 20.6
2020-Jan-24 20:03 061 2 gusting 10 20.6
2020-Jan-24 19:53 095 1 gusting 5 20.0
2020-Jan-24 19:43 161 0 gusting 4 20.0
2020-Jan-24 19:33 065 1 gusting 5 20.0
2020-Jan-24 19:23 060 1 gusting 6 20.0
2020-Jan-24 19:13 096 1 gusting 4 20.0
2020-Jan-24 19:03 070 1 gusting 5 20.0
2020-Jan-24 18:53 184 1 gusting 6 19.4
2020-Jan-24 18:43 150 0 gusting 9 19.4
2020-Jan-24 18:33 323 2 gusting 6 19.4
2020-Jan-24 18:23 098 3 gusting 13 20.0
2020-Jan-24 18:13 065 1 gusting 7 20.0
2020-Jan-24 18:03 030 1 gusting 6 20.6
2020-Jan-24 17:53 053 0 gusting 6 20.0
2020-Jan-24 17:43 049 0 gusting 6 20.0
2020-Jan-24 17:33 192 1 gusting 4 20.0
2020-Jan-24 17:23 037 1 gusting 6 20.0
2020-Jan-24 17:13 063 1 gusting 7 20.0
2020-Jan-24 17:03 070 1 gusting 7 19.4
2020-Jan-24 16:53 137 1 gusting 6 19.4
2020-Jan-24 16:43 337 1 gusting 6 19.4
2020-Jan-24 16:33 140 0 gusting 1 18.9
2020-Jan-24 16:23 055 18.3
2020-Jan-24 16:13 200 18.3
2020-Jan-24 16:03 148 17.8
2020-Jan-24 15:53 148 17.2
2020-Jan-24 15:43 169 16.7
2020-Jan-24 15:23 071 16.1
2020-Jan-24 15:13 186 15.6
2020-Jan-24 15:03 185 15.6
2020-Jan-24 14:53 159 15.0
2020-Jan-24 14:43 159 14.4
2020-Jan-24 14:33 152 13.9
2020-Jan-24 14:23 201 13.3
2020-Jan-24 14:13 201 12.8
2020-Jan-24 14:03 208 12.2
2020-Jan-24 13:53 172 11.7
2020-Jan-24 13:43 335 11.1
2020-Jan-24 13:33 070 10.6
2020-Jan-24 13:30 070 10.6
2020-Jan-24 13:23 070 10.6
2020-Jan-24 13:13 158 10.0
2020-Jan-24 13:03 216 10.0
2020-Jan-24 13:00 150 9.4
2020-Jan-24 12:53 155 10.0
2020-Jan-24 12:43 155 9.4
2020-Jan-24 12:33 155 9.4
2020-Jan-24 12:30 155 9.4
2020-Jan-24 12:23 155 9.4
2020-Jan-24 12:13 155 9.4
2020-Jan-24 12:03 155 9.4
2020-Jan-24 11:53 155 9.4
2020-Jan-24 11:43 155 9.4
2020-Jan-24 11:33 155 9.4
2020-Jan-24 11:23 155 9.4
2020-Jan-24 11:13 212 8.9
2020-Jan-24 11:03 212 8.9
2020-Jan-24 10:53 212 8.9
2020-Jan-24 10:43 213 8.3
2020-Jan-24 10:33 212 8.9
2020-Jan-24 10:23 212 8.9
2020-Jan-24 10:13 212 8.9
2020-Jan-24 10:03 213 8.9
2020-Jan-24 09:53 212 8.9
2020-Jan-24 09:43 212 8.3
2020-Jan-24 09:33 212 8.3
2020-Jan-24 09:30 212 8.3
2020-Jan-24 09:23 213 8.3
2020-Jan-24 09:13 212 8.3
2020-Jan-24 09:03 212 8.9
2020-Jan-24 08:53 213 8.9
2020-Jan-24 08:43 212 8.9
2020-Jan-24 08:33 211 8.9
2020-Jan-24 08:23 211 8.9
2020-Jan-24 08:13 211 8.9
2020-Jan-24 08:03 211 8.9
2020-Jan-24 07:53 211 8.9
2020-Jan-24 07:43 211 8.9
2020-Jan-24 07:33 211 8.9
2020-Jan-24 07:23 211 9.4
2020-Jan-24 07:13 211 9.4
2020-Jan-24 07:03 211 9.4
2020-Jan-24 06:53 211 9.4
2020-Jan-24 06:43 211 10.0
2020-Jan-24 06:33 211 10.0
2020-Jan-24 06:23 165 10.0
2020-Jan-24 06:13 165 10.0
2020-Jan-24 06:03 165 9.4
2020-Jan-24 05:53 165 9.4
2020-Jan-24 05:43 165 9.4
2020-Jan-24 05:33 165 10.0
2020-Jan-24 05:23 164 10.0
2020-Jan-24 05:13 165 10.0
2020-Jan-24 05:03 140 10.0
2020-Jan-24 04:53 152 10.0
2020-Jan-24 04:43 152 10.0
2020-Jan-24 04:33 152 10.0
2020-Jan-24 04:23 152 10.0
2020-Jan-24 04:13 152 10.0
2020-Jan-24 04:03 179 10.0
2020-Jan-24 04:00 179 10.0
2020-Jan-24 03:53 179 10.0
2020-Jan-24 03:43 179 10.6
2020-Jan-24 03:33 179 10.6
2020-Jan-24 03:23 179 10.0
2020-Jan-24 03:13 179 10.0
2020-Jan-24 03:03 179 10.0
2020-Jan-24 02:53 179 10.0
2020-Jan-24 02:33 179 10.6
2020-Jan-24 02:13 181 10.6
2020-Jan-24 02:03 115 10.6
2020-Jan-24 01:53 186 10.6
2020-Jan-24 01:43 335 10.6
2020-Jan-24 01:33 190 10.6
2020-Jan-24 01:23 143 11.1
2020-Jan-24 01:13 346 11.1
2020-Jan-24 01:03 347 11.1
2020-Jan-24 00:53 347 11.1
2020-Jan-24 00:43 137 11.1
2020-Jan-24 00:33 190 11.7
2020-Jan-24 00:30 188 11.1
2020-Jan-24 00:23 243 11.7
2020-Jan-24 00:13 319 11.7
2020-Jan-24 00:03 156 11.7
2020-Jan-23 23:53 046 12.2
2020-Jan-23 23:43 145 12.2
2020-Jan-23 23:33 203 12.2
2020-Jan-23 23:23 236 12.8
2020-Jan-23 23:13 172 12.8
2020-Jan-23 23:03 166 13.3
2020-Jan-23 22:53 314 13.3
2020-Jan-23 22:43 162 13.3
2020-Jan-23 22:33 017 13.9
2020-Jan-23 22:23 018 13.9
2020-Jan-23 22:13 128 13.9
2020-Jan-23 22:03 128 13.9
2020-Jan-23 21:53 335 14.4
2020-Jan-23 21:43 334 14.4
2020-Jan-23 21:23 345 14.4
2020-Jan-23 21:13 343 14.4
2020-Jan-23 21:03 155 14.4
2020-Jan-23 20:53 140 15.0
2020-Jan-23 20:43 349 0 gusting 3 15.0
2020-Jan-23 20:33 148 15.0
2020-Jan-23 20:23 195 15.0
2020-Jan-23 20:13 018 15.0
2020-Jan-23 20:03 349 15.0
2020-Jan-23 19:53 339 15.0
2020-Jan-23 19:43 349 14.4
2020-Jan-23 19:33 267 0 gusting 4 14.4
2020-Jan-23 19:23 350 14.4
2020-Jan-23 19:13 014 1 gusting 4 15.0
2020-Jan-23 19:03 014 0 gusting 2 15.6
2020-Jan-23 18:53 198 15.6
2020-Jan-23 18:43 179 16.1
2020-Jan-23 18:33 179 16.1
2020-Jan-23 18:23 276 16.1
2020-Jan-23 18:13 179 16.1
2020-Jan-23 18:03 158 16.1
2020-Jan-23 17:53 020 0 gusting 2 16.1
2020-Jan-23 17:43 022 16.1
2020-Jan-23 17:33 348 0 gusting 3 16.1
2020-Jan-23 17:23 023 0 gusting 5 15.6
2020-Jan-23 17:13 146 16.1
2020-Jan-23 17:03 317 0 gusting 2 15.6
2020-Jan-23 16:53 156 15.6
2020-Jan-23 16:43 330 0 gusting 4 14.4
2020-Jan-23 16:33 327 0 gusting 3 13.9
2020-Jan-23 16:30 332 13.9
2020-Jan-23 16:23 001 13.9
2020-Jan-23 16:13 330 12.8
2020-Jan-23 16:03 004 1 gusting 5 12.8
2020-Jan-23 15:53 187 11.7
2020-Jan-23 15:43 121 11.1
2020-Jan-23 15:33 330 10.0
2020-Jan-23 15:23 352 9.4
2020-Jan-23 15:13 330 9.4
2020-Jan-23 15:03 173 8.9
2020-Jan-23 15:00 328 8.3
2020-Jan-23 14:53 328 8.3
2020-Jan-23 14:43 352 8.3
2020-Jan-23 14:33 221 7.8
2020-Jan-23 14:23 219 0 gusting 3 7.2
2020-Jan-23 14:13 239 6.7
2020-Jan-23 14:03 360 0 gusting 2 6.1
2020-Jan-23 13:53 017 0 gusting 5 6.1
2020-Jan-23 13:43 318 0 gusting 3 5.6
2020-Jan-23 13:33 342 5.0
2020-Jan-23 13:23 004 4.4
2020-Jan-23 13:13 354 4.4
2020-Jan-23 13:03 001 3.9